Portada
METAR-TAF:

METAR-TAF

Aeroports :

Base Naval de Rota

Rota, Espanya

latitud: 36-39N, longitud: 006-21W, altitud: 26 m

Observació

L'informe es va fer fa 1 hora i 2 minuts, a les 15:00 UTC
Vent 6 kt del Oest, variant entre Oest/Sud-Oest i Oest/Nord-Oest
Temperatura 16°C
Humitat 72%
Pressió 1010 hPa
Visibilitat 10 km o més
Escasses núvols a una alçada de 4000 ft

METAR: LERT 221500Z 26006KT 240V300 9999 FEW040 16/11 Q1010 NOSIG

Hora: 18:02 (16:02 UTC)

Pronòstic

L'informe es va fer fa 2 hores i 2 minuts, a les 14:00 UTC
Pronòstic vàlid del 22 a les 15 UTC al 22 a les 24 UTC
Vent 9 kt del Oest/Sud-Oest
Visibilitat 10 km o més
Escasses núvols a una alçada de 3500 ft
Probabilitat 30% :
Temporalment
l' 22 a les 15 UTC al 22 a les 18 UTC
Visibilitat: 4000 m
Núvols disperses a una alçada de 3500 ft, Cumulus congestus.
xàfecs de pluja

TAF: LERT 221400Z 2215/2224 25009KT 9999 FEW035 PROB30 TEMPO 2215/2218 4000 SHRA SCT035TCU

Observacions i pronòstics meteorològics de més de 4000 aeroports (METAR i TAF).

Les estacions disponibles són els punts grocs i vermells al mapa.

Posi el ratolí al punt desitjat per veure el nom de l'estació.

Feu clic per veure les observacions i els pronòstics meteorològics.

Per canviar el mapa: feu clic els botons verds amb una creu de color negre per apropar; al botó verd amb un guió per allunyar la imatge; o en les fletxes verdes per a mapes adjacents.


METAR-TAF: